createdAt,value
2018-11-21T00:00:17.119Z,45.90
2018-11-21T00:02:45.970Z,45.90
2018-11-21T00:05:14.891Z,45.90
2018-11-21T00:07:43.813Z,45.90
2018-11-21T00:10:13.457Z,45.80
2018-11-21T00:12:45.064Z,45.90
2018-11-21T00:15:13.795Z,45.80
2018-11-21T00:17:42.835Z,45.80
2018-11-21T00:20:11.789Z,45.90
2018-11-21T00:22:40.552Z,45.90
2018-11-21T00:25:09.684Z,45.80
2018-11-21T00:27:38.902Z,45.80
2018-11-21T00:30:12.609Z,45.80
2018-11-21T00:32:41.654Z,45.90
2018-11-21T00:37:40.123Z,45.80
2018-11-21T00:40:10.801Z,45.80
2018-11-21T00:42:46.396Z,45.80
2018-11-21T00:45:09.697Z,45.80
2018-11-21T00:47:38.656Z,45.90
2018-11-21T00:50:07.753Z,45.90
2018-11-21T00:52:36.886Z,45.80
2018-11-21T00:55:06.422Z,45.90
2018-11-21T00:57:35.686Z,45.80
2018-11-21T01:00:05.199Z,45.90
2018-11-21T01:02:34.269Z,45.80
2018-11-21T01:05:03.486Z,45.90
2018-11-21T01:07:32.460Z,45.90
2018-11-21T01:10:01.373Z,45.80
2018-11-21T01:12:30.330Z,45.90
2018-11-21T01:14:59.317Z,45.90
2018-11-21T01:17:28.244Z,45.90
2018-11-21T01:19:57.151Z,45.90
2018-11-21T01:22:26.108Z,45.90
2018-11-21T01:24:54.978Z,45.90
2018-11-21T01:27:23.727Z,45.90
2018-11-21T01:29:52.719Z,45.90
2018-11-21T01:32:21.496Z,45.90
2018-11-21T01:34:50.395Z,45.80
2018-11-21T01:37:19.679Z,45.80
2018-11-21T01:39:48.927Z,45.80
2018-11-21T01:42:18.070Z,45.80
2018-11-21T01:44:47.067Z,45.80
2018-11-21T01:47:16.059Z,45.80
2018-11-21T01:49:44.958Z,45.80
2018-11-21T01:52:13.963Z,45.80
2018-11-21T01:54:42.942Z,45.80
2018-11-21T01:57:12.194Z,45.80
2018-11-21T01:59:41.304Z,45.80
2018-11-21T02:02:10.321Z,45.90
2018-11-21T02:04:39.346Z,45.80
2018-11-21T02:07:08.168Z,45.80
2018-11-21T02:09:37.164Z,45.70
2018-11-21T02:12:06.671Z,45.80
2018-11-21T02:14:35.932Z,45.80
2018-11-21T02:17:05.014Z,45.70
2018-11-21T02:19:34.149Z,45.80
2018-11-21T02:22:03.161Z,45.80
2018-11-21T02:24:32.181Z,45.70
2018-11-21T02:27:01.209Z,45.80
2018-11-21T02:29:30.264Z,45.70
2018-11-21T02:31:59.309Z,45.80
2018-11-21T02:34:28.269Z,45.80
2018-11-21T02:36:57.363Z,45.90
2018-11-21T02:39:26.105Z,45.80
2018-11-21T02:41:55.594Z,45.80
2018-11-21T02:44:24.505Z,45.80
2018-11-21T02:46:53.433Z,46.50
2018-11-21T02:49:22.413Z,45.80
2018-11-21T02:51:51.309Z,45.80
2018-11-21T02:54:20.193Z,45.80
2018-11-21T02:57:21.047Z,45.80
2018-11-21T02:59:54.352Z,45.80
2018-11-21T03:02:23.348Z,45.80
2018-11-21T03:04:52.334Z,45.70
2018-11-21T03:07:21.381Z,45.80
2018-11-21T03:09:50.187Z,45.80
2018-11-21T03:12:19.337Z,45.80
2018-11-21T03:14:48.352Z,45.80
2018-11-21T03:17:17.381Z,45.70
2018-11-21T03:19:46.286Z,45.70
2018-11-21T03:22:15.165Z,45.60
2018-11-21T03:24:44.056Z,45.60
2018-11-21T03:27:12.813Z,45.60
2018-11-21T03:29:41.839Z,45.50
2018-11-21T03:32:10.683Z,45.50
2018-11-21T03:34:39.744Z,45.50
2018-11-21T03:37:08.562Z,45.50
2018-11-21T03:39:37.609Z,45.50
2018-11-21T03:42:06.925Z,45.60
2018-11-21T03:44:35.958Z,45.50
2018-11-21T03:47:04.899Z,45.50
2018-11-21T03:49:34.085Z,45.50
2018-11-21T03:52:02.973Z,45.40
2018-11-21T03:54:31.869Z,45.40
2018-11-21T03:57:00.721Z,45.40
2018-11-21T03:59:29.469Z,45.30
2018-11-21T04:01:58.439Z,45.30
2018-11-21T04:04:27.398Z,45.30
2018-11-21T04:06:56.289Z,45.30
2018-11-21T04:09:25.321Z,45.20
2018-11-21T04:11:54.604Z,45.30
2018-11-21T04:14:23.260Z,45.30
2018-11-21T04:16:52.159Z,45.20
2018-11-21T04:19:21.157Z,45.30
2018-11-21T04:21:50.284Z,45.30
2018-11-21T04:24:19.258Z,45.30
2018-11-21T04:26:48.454Z,45.30
2018-11-21T04:29:17.418Z,45.30
2018-11-21T04:31:46.161Z,45.40
2018-11-21T04:34:15.416Z,45.40
2018-11-21T04:36:44.510Z,45.40
2018-11-21T04:39:13.699Z,45.40
2018-11-21T04:41:42.786Z,45.40
2018-11-21T04:44:12.037Z,45.40
2018-11-21T04:46:40.932Z,45.40
2018-11-21T04:49:09.731Z,45.40
2018-11-21T04:51:38.694Z,45.40
2018-11-21T04:54:07.578Z,45.40
2018-11-21T04:56:36.329Z,45.40
2018-11-21T04:59:05.279Z,45.30
2018-11-21T05:01:34.228Z,45.40
2018-11-21T05:04:03.258Z,45.30
2018-11-21T05:06:31.982Z,45.30
2018-11-21T05:09:00.681Z,45.30
2018-11-21T05:11:29.621Z,45.20
2018-11-21T05:13:58.651Z,45.30
2018-11-21T05:16:27.596Z,45.30
2018-11-21T05:18:56.416Z,45.30
2018-11-21T05:21:25.174Z,45.30
2018-11-21T05:23:54.078Z,45.30
2018-11-21T05:26:22.974Z,45.30
2018-11-21T05:28:51.992Z,45.30
2018-11-21T05:31:21.025Z,45.20
2018-11-21T05:33:50.065Z,45.30
2018-11-21T05:36:18.964Z,45.30
2018-11-21T05:38:48.213Z,45.30
2018-11-21T05:41:17.150Z,45.30
2018-11-21T05:43:46.184Z,45.30
2018-11-21T05:46:15.488Z,45.30
2018-11-21T05:48:44.308Z,45.40
2018-11-21T05:51:13.201Z,45.30
2018-11-21T05:53:42.225Z,45.30
2018-11-21T05:56:11.325Z,45.30
2018-11-21T05:58:40.181Z,45.30
2018-11-21T06:01:08.979Z,45.30
2018-11-21T06:03:37.991Z,45.40
2018-11-21T06:06:10.078Z,45.30
2018-11-21T06:08:35.956Z,45.30
2018-11-21T06:11:04.970Z,45.50
2018-11-21T06:13:33.720Z,45.30
2018-11-21T06:16:02.601Z,45.20
2018-11-21T06:18:31.348Z,45.20
2018-11-21T06:21:00.467Z,45.30
2018-11-21T06:23:29.299Z,45.30
2018-11-21T06:25:58.207Z,45.20
2018-11-21T06:28:27.194Z,45.30
2018-11-21T06:30:56.066Z,45.20
2018-11-21T06:33:33.643Z,45.20
2018-11-21T06:36:03.527Z,45.20
2018-11-21T06:38:32.588Z,45.20
2018-11-21T06:41:01.687Z,45.20
2018-11-21T06:43:30.635Z,45.20
2018-11-21T06:45:59.661Z,45.20
2018-11-21T06:48:28.848Z,45.20
2018-11-21T06:50:57.800Z,45.20
2018-11-21T06:53:26.796Z,45.30
2018-11-21T06:55:55.736Z,45.20
2018-11-21T06:58:24.455Z,45.10
2018-11-21T07:00:53.468Z,45.10
2018-11-21T07:03:22.309Z,45.20
2018-11-21T07:05:51.019Z,45.10
2018-11-21T07:08:20.169Z,45.00
2018-11-21T07:10:49.390Z,45.00
2018-11-21T07:13:18.379Z,45.10
2018-11-21T07:15:47.131Z,45.00
2018-11-21T07:18:16.286Z,45.00
2018-11-21T07:20:45.264Z,45.10
2018-11-21T07:23:14.361Z,45.00
2018-11-21T07:25:43.348Z,45.00
2018-11-21T07:28:13.189Z,45.00
2018-11-21T07:30:40.845Z,45.00
2018-11-21T07:33:09.868Z,45.00
2018-11-21T07:35:38.911Z,45.00
2018-11-21T07:38:07.681Z,45.00
2018-11-21T07:40:36.707Z,45.00
2018-11-21T07:43:05.982Z,45.10
2018-11-21T07:45:34.761Z,45.00
2018-11-21T07:48:03.774Z,45.10
2018-11-21T07:50:32.893Z,45.20
2018-11-21T07:53:01.844Z,45.30
2018-11-21T07:55:30.753Z,45.30
2018-11-21T07:58:02.255Z,45.40
2018-11-21T08:01:11.553Z,45.50
2018-11-21T08:03:42.365Z,45.60
2018-11-21T08:06:48.597Z,45.60
2018-11-21T08:09:39.400Z,46.30
2018-11-21T08:12:30.158Z,45.60
2018-11-21T08:15:19.071Z,45.60
2018-11-21T08:17:58.908Z,45.60
2018-11-21T08:20:57.021Z,45.60
2018-11-21T08:26:36.033Z,45.60
2018-11-21T08:29:05.077Z,45.60
2018-11-21T08:31:33.968Z,45.60
2018-11-21T08:34:02.714Z,45.60
2018-11-21T08:36:31.741Z,45.60
2018-11-21T08:39:00.715Z,45.60
2018-11-21T08:41:30.165Z,45.60
2018-11-21T08:43:59.136Z,45.60
2018-11-21T08:46:28.126Z,45.50
2018-11-21T08:48:57.172Z,45.50
2018-11-21T08:51:26.470Z,45.50
2018-11-21T08:53:55.412Z,45.50
2018-11-21T08:56:24.189Z,45.50
2018-11-21T08:58:53.203Z,45.40
2018-11-21T09:01:22.170Z,45.40
2018-11-21T09:03:51.176Z,45.30
2018-11-21T09:06:20.111Z,45.40
2018-11-21T09:08:49.239Z,45.30
2018-11-21T09:11:18.312Z,45.30
2018-11-21T09:13:47.109Z,45.30
2018-11-21T09:16:16.116Z,45.20
2018-11-21T09:18:45.026Z,45.20
2018-11-21T09:21:13.960Z,45.30
2018-11-21T09:23:42.910Z,45.10
2018-11-21T09:26:11.817Z,45.10
2018-11-21T09:28:40.993Z,45.10
2018-11-21T09:31:09.777Z,45.10
2018-11-21T09:33:38.838Z,45.10
2018-11-21T09:36:07.866Z,45.10
2018-11-21T09:38:36.612Z,45.50
2018-11-21T09:41:05.854Z,45.00
2018-11-21T09:43:35.039Z,45.00
2018-11-21T09:46:03.765Z,45.10
2018-11-21T09:48:32.632Z,45.10
2018-11-21T09:51:01.467Z,45.00
2018-11-21T09:53:30.515Z,45.00
2018-11-21T09:55:59.517Z,45.00
2018-11-21T09:58:30.914Z,45.00
2018-11-21T10:01:35.768Z,45.00
2018-11-21T10:04:04.693Z,45.00
2018-11-21T10:06:36.298Z,45.00
2018-11-21T10:09:10.915Z,45.00
2018-11-21T10:11:39.834Z,45.00
2018-11-21T10:14:08.783Z,45.00
2018-11-21T10:16:37.861Z,44.90
2018-11-21T10:19:06.793Z,44.90
2018-11-21T10:21:36.530Z,44.90
2018-11-21T10:24:05.537Z,44.90
2018-11-21T10:26:34.262Z,44.90
2018-11-21T10:29:03.296Z,44.80
2018-11-21T10:31:32.266Z,44.80
2018-11-21T10:34:01.098Z,44.90
2018-11-21T10:36:30.077Z,45.00
2018-11-21T10:38:59.131Z,44.90
2018-11-21T10:41:28.079Z,44.80
2018-11-21T10:43:57.070Z,44.80
2018-11-21T10:46:26.023Z,44.80
2018-11-21T10:48:54.942Z,44.80
2018-11-21T10:51:23.948Z,44.80
2018-11-21T10:53:53.409Z,44.70
2018-11-21T10:56:22.227Z,44.70
2018-11-21T10:58:50.998Z,44.70
2018-11-21T11:01:42.088Z,44.70
2018-11-21T11:04:23.987Z,44.70
2018-11-21T11:07:07.096Z,44.70
2018-11-21T11:09:55.149Z,44.60
2018-11-21T11:12:48.929Z,44.70
2018-11-21T11:15:35.429Z,44.60
2018-11-21T11:18:14.974Z,44.60
2018-11-21T11:21:01.681Z,44.60
2018-11-21T11:23:48.494Z,44.60
2018-11-21T11:26:48.614Z,44.60
2018-11-21T11:29:35.630Z,44.50
2018-11-21T11:32:13.462Z,44.50
2018-11-21T11:35:10.585Z,44.60
2018-11-21T11:38:01.592Z,44.60
2018-11-21T11:40:52.592Z,44.60
2018-11-21T11:43:39.533Z,44.50
2018-11-21T11:46:27.687Z,44.60
2018-11-21T11:49:14.753Z,44.60
2018-11-21T11:52:01.177Z,44.50
2018-11-21T11:54:52.178Z,44.60
2018-11-21T11:57:46.140Z,44.50
2018-11-21T12:00:46.180Z,44.60
2018-11-21T12:03:57.752Z,44.60
2018-11-21T12:06:42.560Z,44.60
2018-11-21T12:09:39.777Z,44.60
2018-11-21T12:12:27.601Z,44.60
2018-11-21T12:15:11.130Z,44.50
2018-11-21T12:18:02.169Z,44.60
2018-11-21T12:20:55.915Z,44.60
2018-11-21T12:23:59.043Z,44.40
2018-11-21T12:26:59.056Z,44.40
2018-11-21T12:29:45.560Z,44.40
2018-11-21T12:32:51.615Z,44.40
2018-11-21T12:35:45.206Z,44.40
2018-11-21T12:38:51.873Z,44.40
2018-11-21T12:41:33.922Z,44.50
2018-11-21T12:44:11.969Z,44.40
2018-11-21T12:46:58.373Z,44.30
2018-11-21T12:49:49.285Z,45.00
2018-11-21T12:52:28.306Z,43.30
2018-11-21T12:55:14.908Z,44.20
2018-11-21T12:58:11.860Z,44.40
2018-11-21T13:00:59.714Z,44.20
2018-11-21T13:03:46.607Z,43.90
2018-11-21T13:06:40.725Z,43.60
2018-11-21T13:09:31.982Z,43.40
2018-11-21T13:12:38.474Z,43.30
2018-11-21T13:15:36.403Z,43.30
2018-11-21T13:18:30.432Z,43.20
2018-11-21T13:21:23.997Z,43.20
2018-11-21T13:24:10.549Z,43.10
2018-11-21T13:26:57.102Z,43.10
2018-11-21T13:29:54.258Z,43.20
2018-11-21T13:32:48.397Z,43.20
2018-11-21T13:35:48.479Z,43.20
2018-11-21T13:38:39.927Z,43.20
2018-11-21T13:41:42.891Z,43.20
2018-11-21T13:44:30.775Z,43.20
2018-11-21T13:47:17.324Z,43.20
2018-11-21T13:50:03.921Z,43.20
2018-11-21T13:52:53.861Z,43.30
2018-11-21T13:55:22.906Z,43.30
2018-11-21T13:57:51.927Z,43.30
2018-11-21T14:00:20.985Z,44.10
2018-11-21T14:02:50.246Z,43.30
2018-11-21T14:05:19.419Z,43.40
2018-11-21T14:07:48.483Z,43.60
2018-11-21T14:10:17.286Z,43.60
2018-11-21T14:12:45.992Z,43.50
2018-11-21T14:15:15.068Z,43.60
2018-11-21T14:17:44.078Z,43.60
2018-11-21T14:20:13.794Z,43.60
2018-11-21T14:22:43.120Z,43.50
2018-11-21T14:25:12.503Z,43.50
2018-11-21T14:27:41.343Z,43.50
2018-11-21T14:30:12.437Z,43.40
2018-11-21T14:32:41.890Z,43.50
2018-11-21T14:35:12.597Z,43.60
2018-11-21T14:37:41.942Z,43.60
2018-11-21T14:40:13.329Z,43.60
2018-11-21T14:42:42.528Z,43.60
2018-11-21T14:45:13.646Z,43.60
2018-11-21T14:47:42.947Z,43.60
2018-11-21T14:50:23.987Z,43.50
2018-11-21T14:52:52.784Z,43.60
2018-11-21T14:55:21.614Z,43.60
2018-11-21T14:57:51.238Z,43.60
2018-11-21T15:00:21.107Z,43.50
2018-11-21T15:02:50.323Z,43.60
2018-11-21T15:05:19.603Z,43.60
2018-11-21T15:07:48.883Z,43.70
2018-11-21T15:10:17.933Z,43.70
2018-11-21T15:12:46.921Z,43.70
2018-11-21T15:15:17.818Z,43.70
2018-11-21T15:17:46.842Z,43.70
2018-11-21T15:20:17.310Z,43.70
2018-11-21T15:22:46.286Z,43.70
2018-11-21T15:25:16.428Z,43.70
2018-11-21T15:27:45.343Z,43.60
2018-11-21T15:30:17.183Z,43.70
2018-11-21T15:32:45.963Z,43.70
2018-11-21T15:35:14.869Z,43.60
2018-11-21T15:37:44.031Z,43.60
2018-11-21T15:40:17.428Z,43.60
2018-11-21T15:42:46.318Z,43.60
2018-11-21T15:45:16.669Z,43.70
2018-11-21T15:47:47.209Z,43.60
2018-11-21T15:50:17.002Z,43.60
